Aérodrome :
LOGIN :

S'inscrire | Disclaimer

   EN    FR    IT 

 










Légende :    VFR   VFR Marginal   IFR   IFR Intensif   IFR Très Intensif
Visi : 
Plafond : 
>= 8 km
>= 3000ft
5 à 8 km
1000 à 3000 ft
1500m à 5 km
500 à 1000 ft
800 à 1500m
200 à 500 ft
< 800m
< 200 ft
Symboles :   Orages  Brouillard  Fortes neiges  Fortes précipitations  Vent > 20 kt
SIGMETs :   Divers  Orages  Givrage  Turbulence  Onde Orograph.  Cendres Volcan.







- Altitude de l'aérodrome : 2945 ft
- Code IATA : RGS


LEBG - Burgos

DERNIER METAR :
  • 232130Z AUTO 03014KT 360V060 9999 BKN011 OVC016 11/09 Q1019

METARs EXPIRÉS :
  • 232100Z AUTO 02016KT 9999 OVC011 11/09 Q1019
  • 232030Z AUTO 03018KT 350V050 9999 OVC012 11/09 Q1019
  • 232000Z AUTO 02015KT 340V050 9999 BKN011 OVC017 12/10 Q1019
  • 231930Z AUTO 03014KT 360V060 9999 -RA SCT019 SCT031 12/10 Q1018 RERA
  • 231900Z AUTO 02012KT 340V050 9000 2600 +RA SCT021 14/11 Q1018
  • 231830Z AUTO 02015KT 350V050 CAVOK 15/11 Q1018

TAF TAF LEBG
Valide du 23 à 18h jusqu'au 24 à 03h UTC


231700Z 2318/2403 02014KT CAVOK
PROB30
TEMPO 2318/2321 3000 SHRA SCT030TCU
TEMPO 2322/2401 BKN008
Pas de NOTAMs connus pour ce terrain.
1 SIGMET publié pour la FIR Madrid (LECM) :
 
Orages noyés dans la masse
LECM SIGMET 4 VALID 232015/232230 LEVA
LECM MADRID FIR/UIR EMBD TS OBS AT 2015Z WI N4020 W00050 - N4211 W00017 - N4306 W00252 - N4111 W00335 - N4020 W00050 TOP FL300 MOV E 10KT WKN=



MET'MAP, la Météo Aéronautique d'un coup d'oeil ! - Copyright ORBIFLY Décembre 2007 - Disclaimer

ORBIFLY MET'MAP TEAM :

Programmation & Développement : Alexandra Zaïnal
Conception & Développement : Baudouin d'Aumeries
Co-Programmation & Développement : Marc-Olivier Méhu
Soutien technique & logistique : Manuel Goepfert

Contact : metmap@orbifly.com




SOURCES & CREDITS :

   NOAA